Aviation Digital Data Service (ADDS)

Output produced by TAFs form (1834 UTC 31 October 2014)
found at http://aviationweather.gov/adds/tafs/
 
KMAF 311728Z 3118/0118 08012KT P6SM FEW250 
     FM011500 15012G20KT P6SM BKN200